Time;durP1;ratioP1;P1;durP2;ratioP2;P2;SDS_P1;SDS_P2;PMS_P1;PMS_P2;Temp;Humidity;BMP_temperature;BMP_pressure;BME280_temperature;BME280_humidity;BME280_pressure;Samples;Min_cycle;Max_cycle;Signal;HPM_P1;HPM_P2
2023/03/22 00:00:23;;;;;;;12.95;8.52;;;;;;;9.81;100.00;100837.56;10463876;28;20178;-78
2023/03/22 00:05:24;;;;;;;13.05;7.55;;;;;;;9.84;100.00;100829.88;10426261;28;20473;-77
2023/03/22 00:10:25;;;;;;;10.75;6.90;;;;;;;9.69;100.00;100824.78;10424864;28;20041;-77
2023/03/22 00:15:28;;;;;;;14.38;9.77;;;;;;;9.40;100.00;100824.19;10419619;28;20462;-77
2023/03/22 00:20:35;;;;;;;17.13;10.43;;;;;;;9.05;100.00;100824.13;10435732;28;20049;-78
2023/03/22 00:25:36;;;;;;;15.98;9.90;;;;;;;9.02;100.00;100821.34;10432560;28;20063;-78
2023/03/22 00:30:36;;;;;;;16.77;10.20;;;;;;;9.13;100.00;100813.19;10482331;28;20167;-78
2023/03/22 00:35:37;;;;;;;17.42;10.50;;;;;;;9.21;100.00;100809.25;10437533;28;20125;-78
2023/03/22 00:40:37;;;;;;;13.05;9.50;;;;;;;9.19;100.00;100805.66;10433822;28;20056;-77
2023/03/22 00:45:39;;;;;;;18.15;8.88;;;;;;;8.83;100.00;100803.81;10473319;28;20191;-78
2023/03/22 00:50:40;;;;;;;15.35;9.55;;;;;;;8.69;100.00;100795.22;10480482;28;20388;-78
2023/03/22 00:55:41;;;;;;;14.60;9.55;;;;;;;8.48;100.00;100790.59;10436655;28;20061;-77
2023/03/22 01:00:43;;;;;;;20.67;10.80;;;;;;;8.26;100.00;100779.81;10458432;28;20075;-78
2023/03/22 01:05:44;;;;;;;14.48;9.80;;;;;;;8.07;100.00;100790.13;10416664;28;20041;-77
2023/03/22 01:10:45;;;;;;;17.48;10.13;;;;;;;7.96;100.00;100780.78;10421335;28;20046;-77
2023/03/22 01:15:49;;;;;;;18.38;12.07;;;;;;;7.85;100.00;100769.75;10459437;28;20051;-77
2023/03/22 01:20:50;;;;;;;19.58;10.57;;;;;;;7.70;100.00;100755.84;10449076;28;20079;-78
2023/03/22 01:25:50;;;;;;;19.25;11.25;;;;;;;7.73;100.00;100750.78;10423050;28;20546;-77
2023/03/22 01:30:51;;;;;;;17.38;11.23;;;;;;;7.90;100.00;100752.66;10403626;28;20038;-77
2023/03/22 01:35:51;;;;;;;18.55;10.43;;;;;;;7.99;100.00;100746.16;10431825;28;20037;-77
2023/03/22 01:40:52;;;;;;;24.30;11.02;;;;;;;8.02;100.00;100743.72;10468692;28;20152;-78
2023/03/22 01:45:52;;;;;;;16.58;9.50;;;;;;;7.96;100.00;100731.28;10468262;28;20120;-77
2023/03/22 01:51:01;;;;;;;20.60;10.05;;;;;;;7.96;100.00;100719.94;10462523;28;20485;-75
2023/03/22 01:56:02;;;;;;;18.38;9.18;;;;;;;7.93;100.00;100716.34;10470727;28;20044;-76
2023/03/22 02:01:03;;;;;;;14.23;9.07;;;;;;;7.94;100.00;100704.22;10465890;28;20052;-75
2023/03/22 02:06:04;;;;;;;14.93;8.57;;;;;;;7.86;100.00;100682.94;10468907;28;20082;-75
2023/03/22 02:11:05;;;;;;;21.05;11.38;;;;;;;7.79;100.00;100670.38;10423246;28;20313;-76
2023/03/22 02:16:29;;;;;;;15.30;8.15;;;;;;;7.59;100.00;100669.28;10451316;28;20041;-75
2023/03/22 02:22:00;;;;;;;14.85;9.82;;;;;;;7.52;100.00;100661.94;10411398;28;20087;-76
2023/03/22 02:27:15;;;;;;;13.48;8.40;;;;;;;7.54;100.00;100658.59;10448585;28;20476;-75
2023/03/22 02:32:24;;;;;;;11.23;8.55;;;;;;;7.57;100.00;100658.75;10476063;28;20048;-76
2023/03/22 02:37:42;;;;;;;12.93;8.32;;;;;;;7.62;100.00;100661.63;10415933;28;20044;-77
2023/03/22 02:43:10;;;;;;;10.27;6.47;;;;;;;7.62;100.00;100656.44;10485447;28;20032;-78
2023/03/22 02:48:14;;;;;;;14.85;8.68;;;;;;;7.69;100.00;100652.44;10445745;28;20049;-78
2023/03/22 02:53:17;;;;;;;9.27;6.18;;;;;;;7.54;100.00;100652.50;10464868;28;20059;-77
2023/03/22 02:58:27;;;;;;;14.43;6.32;;;;;;;7.74;100.00;100645.78;10426409;28;20047;-77
2023/03/22 03:03:29;;;;;;;11.90;5.85;;;;;;;7.96;100.00;100636.53;10442463;28;20036;-77
2023/03/22 03:08:29;;;;;;;15.75;6.35;;;;;;;8.05;100.00;100622.31;10439037;28;20596;-77
2023/03/22 03:13:30;;;;;;;20.90;6.70;;;;;;;7.85;100.00;100621.22;10447157;27;20072;-78
2023/03/22 03:18:52;;;;;;;18.13;7.75;;;;;;;7.79;100.00;100628.69;10455573;28;20039;-77
2023/03/22 03:24:05;;;;;;;16.00;7.85;;;;;;;7.81;100.00;100615.75;10485887;27;20094;-77
2023/03/22 03:29:21;;;;;;;17.98;7.88;;;;;;;7.84;100.00;100624.63;10503996;27;20036;-78
2023/03/22 03:34:25;;;;;;;18.15;6.68;;;;;;;7.84;100.00;100626.34;10475706;27;20040;-78
2023/03/22 03:39:27;;;;;;;16.42;7.43;;;;;;;8.00;100.00;100613.34;10483958;28;20127;-78
2023/03/22 03:44:28;;;;;;;14.23;6.47;;;;;;;7.98;100.00;100614.06;10445751;28;20033;-77
2023/03/22 03:49:29;;;;;;;8.23;5.05;;;;;;;7.94;100.00;100611.28;10465877;28;20041;-77
2023/03/22 03:54:29;;;;;;;10.32;5.45;;;;;;;8.07;100.00;100612.88;10451586;28;20033;-77
2023/03/22 03:59:30;;;;;;;8.90;4.82;;;;;;;8.09;100.00;100607.72;10436157;28;20136;-78
2023/03/22 04:04:33;;;;;;;9.35;4.38;;;;;;;7.98;100.00;100594.13;10424666;28;20485;-77
2023/03/22 04:09:35;;;;;;;11.90;4.75;;;;;;;8.13;100.00;100606.19;10441316;28;20029;-77
2023/03/22 04:14:35;;;;;;;10.52;5.53;;;;;;;8.07;100.00;100602.44;10442718;28;20037;-77
2023/03/22 04:19:36;;;;;;;8.50;4.53;;;;;;;8.11;100.00;100611.31;10479364;28;20040;-77
2023/03/22 04:24:38;;;;;;;9.98;4.60;;;;;;;8.05;100.00;100611.88;10486945;28;20544;-77
2023/03/22 04:29:39;;;;;;;7.72;3.40;;;;;;;8.19;100.00;100602.19;10460448;28;20047;-78
2023/03/22 04:34:39;;;;;;;9.73;5.03;;;;;;;8.17;100.00;100595.09;10449133;28;20040;-78
2023/03/22 04:39:40;;;;;;;10.40;4.75;;;;;;;8.08;100.00;100599.03;10416734;28;20049;-77
2023/03/22 04:44:40;;;;;;;7.57;4.22;;;;;;;8.02;100.00;100592.56;10462844;28;20037;-78
2023/03/22 04:49:41;;;;;;;8.93;4.22;;;;;;;8.01;100.00;100598.59;10439153;28;20112;-77
2023/03/22 04:54:41;;;;;;;8.80;4.18;;;;;;;7.80;100.00;100591.41;10486148;28;20544;-77
2023/03/22 04:59:42;;;;;;;8.43;4.50;;;;;;;7.81;100.00;100597.53;10433163;28;20073;-77
2023/03/22 05:04:43;;;;;;;7.57;3.70;;;;;;;7.75;100.00;100588.56;10446791;28;20124;-78
2023/03/22 05:09:43;;;;;;;8.43;4.60;;;;;;;7.82;100.00;100592.38;10446621;28;20033;-78
2023/03/22 05:14:43;;;;;;;9.55;4.40;;;;;;;7.84;100.00;100582.94;10451517;28;20475;-77
2023/03/22 05:19:44;;;;;;;10.98;4.60;;;;;;;7.87;100.00;100584.84;10459868;28;20171;-77
2023/03/22 05:24:45;;;;;;;14.02;5.35;;;;;;;7.85;100.00;100584.72;10454795;28;20120;-77
2023/03/22 05:29:45;;;;;;;10.65;4.78;;;;;;;7.99;100.00;100588.09;10445032;28;20083;-77
2023/03/22 05:34:47;;;;;;;16.98;6.45;;;;;;;7.95;100.00;100578.31;10442174;28;20053;-77
2023/03/22 05:39:47;;;;;;;6.78;3.63;;;;;;;7.93;100.00;100587.78;10454838;28;20041;-77
2023/03/22 05:44:48;;;;;;;9.45;3.67;;;;;;;7.92;100.00;100593.78;10440235;28;20127;-76
2023/03/22 05:49:48;;;;;;;10.05;4.53;;;;;;;8.06;100.00;100599.72;10439838;28;20124;-77
2023/03/22 05:54:49;;;;;;;6.28;3.92;;;;;;;8.20;100.00;100603.09;10457498;28;20098;-75
2023/03/22 05:59:52;;;;;;;8.82;4.25;;;;;;;8.39;100.00;100584.06;10440158;28;20065;-76
2023/03/22 06:04:53;;;;;;;7.60;4.43;;;;;;;8.45;100.00;100573.97;10788403;23;20045;-78
2023/03/22 06:09:54;;;;;;;8.30;4.60;;;;;;;8.57;100.00;100571.13;10325890;28;20046;-78
2023/03/22 06:14:57;;;;;;;5.70;3.38;;;;;;;8.76;100.00;100566.84;10338211;28;20064;-77
2023/03/22 06:20:08;;;;;;;8.68;3.60;;;;;;;8.77;100.00;100571.25;10343460;28;20038;-78
2023/03/22 06:25:09;;;;;;;9.15;4.40;;;;;;;8.84;100.00;100575.94;10359172;28;20111;-79
2023/03/22 06:30:10;;;;;;;8.13;3.65;;;;;;;8.94;100.00;100575.59;10329169;28;20100;-78
2023/03/22 06:35:10;;;;;;;10.73;4.10;;;;;;;9.00;100.00;100579.31;10339350;28;20189;-78
2023/03/22 06:40:11;;;;;;;6.45;2.50;;;;;;;9.14;100.00;100583.50;10297853;28;20572;-78
2023/03/22 06:45:15;;;;;;;9.20;3.15;;;;;;;9.21;100.00;100567.31;10300369;28;20037;-78
2023/03/22 06:50:16;;;;;;;8.38;3.13;;;;;;;9.25;100.00;100570.97;10326229;28;20050;-77
2023/03/22 06:55:16;;;;;;;11.68;3.80;;;;;;;9.32;100.00;100562.59;10310155;28;20743;-78
2023/03/22 07:00:17;;;;;;;7.72;3.45;;;;;;;9.25;100.00;100566.66;10323615;28;20041;-78
2023/03/22 07:05:18;;;;;;;8.00;5.72;;;;;;;9.23;100.00;100563.06;10325543;28;20515;-77
2023/03/22 07:10:18;;;;;;;8.40;3.92;;;;;;;9.19;100.00;100575.88;10357671;28;20420;-77
2023/03/22 07:15:23;;;;;;;9.05;2.75;;;;;;;9.27;100.00;100568.44;10309262;28;20572;-77
2023/03/22 07:20:23;;;;;;;8.70;3.17;;;;;;;9.41;100.00;100575.22;10341952;28;20045;-77
2023/03/22 07:25:24;;;;;;;9.32;2.72;;;;;;;9.75;100.00;100571.56;10369437;28;20038;-76
2023/03/22 07:30:24;;;;;;;6.32;2.20;;;;;;;10.06;100.00;100572.06;10352843;28;20111;-77
2023/03/22 07:35:25;;;;;;;11.10;4.20;;;;;;;10.00;100.00;100567.47;10356240;28;20052;-78
2023/03/22 07:40:26;;;;;;;7.75;2.45;;;;;;;9.93;100.00;100571.50;10355159;28;20177;-77
2023/03/22 07:45:26;;;;;;;6.93;2.72;;;;;;;9.98;100.00;100576.97;10332499;28;20046;-78
2023/03/22 07:50:27;;;;;;;7.55;2.88;;;;;;;9.95;100.00;100571.59;10346622;28;20120;-77
2023/03/22 07:55:30;;;;;;;6.13;2.65;;;;;;;9.78;100.00;100578.66;10332121;28;20049;-77
2023/03/22 08:00:31;;;;;;;6.10;3.00;;;;;;;10.12;100.00;100561.88;10333813;28;20539;-77
2023/03/22 08:05:32;;;;;;;7.30;2.15;;;;;;;10.57;100.00;100564.75;10335915;28;20103;-79
2023/03/22 08:10:32;;;;;;;8.32;2.50;;;;;;;10.90;100.00;100562.59;10323870;28;20389;-78
2023/03/22 08:15:33;;;;;;;11.20;3.50;;;;;;;11.26;100.00;100557.06;10309521;28;20053;-78
2023/03/22 08:20:33;;;;;;;12.13;2.25;;;;;;;11.19;100.00;100562.88;10333868;28;20556;-78
2023/03/22 08:25:35;;;;;;;6.95;2.58;;;;;;;11.26;100.00;100572.78;10336815;28;20042;-78
2023/03/22 08:30:37;;;;;;;8.52;2.88;;;;;;;11.49;100.00;100564.94;10336704;28;20489;-77
2023/03/22 08:35:37;;;;;;;8.18;2.58;;;;;;;12.19;100.00;100561.50;10343598;28;20046;-76
2023/03/22 08:40:38;;;;;;;4.43;2.17;;;;;;;12.46;100.00;100562.41;10322802;28;20034;-77
2023/03/22 08:45:38;;;;;;;7.60;2.35;;;;;;;13.04;100.00;100546.84;10301880;28;20046;-76
2023/03/22 08:50:39;;;;;;;8.13;2.75;;;;;;;12.57;100.00;100561.06;10319022;28;20370;-77
2023/03/22 08:55:43;;;;;;;21.15;3.15;;;;;;;11.96;100.00;100563.22;10320879;28;20045;-79
2023/03/22 09:00:44;;;;;;;4.70;2.00;;;;;;;11.73;100.00;100549.28;10303017;28;20054;-76
2023/03/22 09:05:45;;;;;;;7.80;2.83;;;;;;;12.61;100.00;100554.19;10320074;28;20057;-78
2023/03/22 09:10:50;;;;;;;11.82;5.15;;;;;;;13.15;100.00;100544.56;10288373;28;20188;-77
2023/03/22 09:15:51;;;;;;;16.02;4.28;;;;;;;13.36;100.00;100547.88;10343142;28;20029;-76
2023/03/22 09:20:51;;;;;;;11.45;4.07;;;;;;;13.66;100.00;100548.78;10323133;28;20039;-77
2023/03/22 09:25:52;;;;;;;15.77;7.50;;;;;;;13.98;100.00;100540.06;10299909;28;20477;-77
2023/03/22 09:31:02;;;;;;;5.07;2.30;;;;;;;13.30;100.00;100536.25;10338358;28;20109;-77
2023/03/22 09:36:03;;;;;;;12.05;5.45;;;;;;;12.85;100.00;100526.97;10344558;28;20545;-77
2023/03/22 09:41:11;;;;;;;13.50;5.15;;;;;;;12.40;100.00;100543.81;10299503;28;20042;-77
2023/03/22 09:46:36;;;;;;;11.10;4.05;;;;;;;12.54;100.00;100546.94;10336902;28;20503;-77
2023/03/22 09:51:41;;;;;;;8.07;2.45;;;;;;;12.60;100.00;100550.66;10322695;28;20049;-76
2023/03/22 09:56:41;;;;;;;12.95;2.30;;;;;;;12.23;100.00;100540.63;10335838;28;20057;-76
2023/03/22 10:01:55;;;;;;;4.00;2.15;;;;;;;12.20;100.00;100541.38;10320978;28;20133;-76
2023/03/22 10:07:06;;;;;;;5.30;1.65;;;;;;;12.39;100.00;100540.31;10324596;28;20045;-76
2023/03/22 10:12:25;;;;;;;28.20;11.20;;;;;;;12.76;100.00;100525.81;10323947;28;20176;-77
2023/03/22 10:17:25;;;;;;;6.63;1.92;;;;;;;13.05;100.00;100510.13;10355363;28;20046;-77
2023/03/22 10:22:46;;;;;;;5.28;1.58;;;;;;;13.21;100.00;100519.34;10326221;28;20073;-75
2023/03/22 10:27:48;;;;;;;10.93;4.35;;;;;;;13.56;100.00;100507.28;10287981;28;20038;-74
2023/03/22 10:33:02;;;;;;;4.50;2.23;;;;;;;13.11;100.00;100517.28;10325138;28;20038;-76
2023/03/22 10:38:04;;;;;;;5.68;1.30;;;;;;;12.56;100.00;100505.88;10320888;28;20504;-75
2023/03/22 10:43:10;;;;;;;4.50;1.60;;;;;;;12.45;100.00;100514.28;10315339;28;20077;-74
2023/03/22 10:48:17;;;;;;;7.35;2.80;;;;;;;12.41;100.00;100507.16;10333089;28;20101;-76
2023/03/22 10:53:38;;;;;;;6.07;1.58;;;;;;;12.58;100.00;100493.69;10280296;28;21611;-75
2023/03/22 10:58:38;;;;;;;3.63;1.30;;;;;;;12.58;100.00;100507.69;10295799;28;20065;-75
2023/03/22 11:03:43;;;;;;;3.20;1.27;;;;;;;12.24;100.00;100497.78;10337944;28;20091;-75
2023/03/22 11:08:48;;;;;;;12.45;4.57;;;;;;;12.00;100.00;100506.59;10301359;28;20477;-76
2023/03/22 11:14:15;;;;;;;4.80;1.80;;;;;;;11.90;100.00;100518.41;10295148;28;20043;-75
2023/03/22 11:19:26;;;;;;;7.38;2.03;;;;;;;11.78;100.00;100516.25;10298000;28;20394;-75
2023/03/22 11:24:27;;;;;;;7.68;1.65;;;;;;;11.87;100.00;100511.34;10307574;28;20034;-77
2023/03/22 11:29:28;;;;;;;12.18;2.40;;;;;;;11.95;100.00;100523.84;10296542;28;20550;-78
2023/03/22 11:34:29;;;;;;;6.80;1.33;;;;;;;11.92;100.00;100519.38;10341469;28;20037;-78
2023/03/22 11:39:30;;;;;;;6.10;1.80;;;;;;;11.92;100.00;100513.25;10364709;28;20280;-75
2023/03/22 11:44:32;;;;;;;4.97;1.63;;;;;;;12.03;100.00;100504.06;10346042;28;20116;-74
2023/03/22 11:49:44;;;;;;;5.72;1.42;;;;;;;12.10;100.00;100497.28;10310456;28;20034;-74
2023/03/22 11:54:44;;;;;;;3.47;1.77;;;;;;;12.14;100.00;100507.97;10340285;28;20124;-74
2023/03/22 11:59:58;;;;;;;3.40;1.35;;;;;;;12.25;100.00;100502.22;10331657;28;20041;-73
2023/03/22 12:05:07;;;;;;;2.70;1.60;;;;;;;12.09;100.00;100450.91;10319643;28;20034;-74
2023/03/22 12:10:14;;;;;;;7.60;1.95;;;;;;;12.00;100.00;100504.84;10338231;28;20060;-75
2023/03/22 12:15:21;;;;;;;9.90;4.18;;;;;;;12.16;100.00;100502.75;10319186;28;20038;-74
2023/03/22 12:20:35;;;;;;;8.82;3.60;;;;;;;12.39;100.00;100514.06;10322732;28;20332;-74
2023/03/22 12:25:35;;;;;;;8.07;1.23;;;;;;;12.31;100.00;100510.28;10342764;28;20053;-77
2023/03/22 12:30:47;;;;;;;5.75;1.20;;;;;;;12.15;100.00;100517.63;10343885;28;20103;-76
2023/03/22 12:35:49;;;;;;;7.07;2.75;;;;;;;12.20;100.00;100517.78;10338758;28;20039;-76
2023/03/22 12:40:51;;;;;;;4.57;1.43;;;;;;;12.06;100.00;100509.44;10329172;28;20108;-78
2023/03/22 12:45:53;;;;;;;4.22;1.48;;;;;;;11.85;100.00;100510.41;10320925;28;20042;-75
2023/03/22 12:51:02;;;;;;;4.70;1.30;;;;;;;11.69;100.00;100494.94;10302122;28;20046;-76
2023/03/22 12:56:02;;;;;;;4.72;1.83;;;;;;;11.55;100.00;100500.56;10325973;28;20085;-74
2023/03/22 13:01:38;;;;;;;7.50;2.28;;;;;;;11.73;100.00;100483.72;10346693;28;20053;-74
2023/03/22 13:06:42;;;;;;;3.47;1.10;;;;;;;12.07;100.00;100476.22;10329073;28;20592;-75
2023/03/22 13:11:47;;;;;;;6.72;1.67;;;;;;;12.36;100.00;100473.69;10334512;28;20065;-75
2023/03/22 13:16:50;;;;;;;9.13;2.33;;;;;;;12.73;100.00;100449.56;10347969;28;20034;-76
2023/03/22 13:22:16;;;;;;;9.68;2.00;;;;;;;12.73;100.00;100453.91;10330563;28;20038;-77
2023/03/22 13:27:17;;;;;;;4.78;1.90;;;;;;;12.85;100.00;100456.06;10310311;28;20038;-76
2023/03/22 13:32:32;;;;;;;4.55;1.65;;;;;;;12.72;100.00;100460.91;10333927;28;20449;-75
2023/03/22 13:37:34;;;;;;;42.35;7.97;;;;;;;12.74;100.00;100456.59;10317129;28;21165;-77
2023/03/22 13:42:38;;;;;;;7.70;1.90;;;;;;;12.52;100.00;100457.63;10297313;28;20042;-77
2023/03/22 13:47:45;;;;;;;5.20;1.90;;;;;;;12.30;100.00;100464.78;10341014;28;20492;-78
2023/03/22 13:53:06;;;;;;;6.95;2.60;;;;;;;12.11;100.00;100465.88;10325977;28;20038;-78
2023/03/22 13:58:35;;;;;;;10.53;1.73;;;;;;;12.13;100.00;100461.59;10332242;28;20046;-76
2023/03/22 14:03:36;;;;;;;4.00;1.52;;;;;;;12.21;100.00;100453.09;10331643;28;20030;-78
2023/03/22 14:08:36;;;;;;;10.15;2.00;;;;;;;12.12;100.00;100470.31;10307204;28;20528;-78
2023/03/22 14:13:40;;;;;;;8.35;1.52;;;;;;;12.06;100.00;100463.94;10310004;28;20100;-78
2023/03/22 14:18:42;;;;;;;5.80;2.83;;;;;;;12.04;100.00;100454.28;10339458;28;20104;-80
2023/03/22 14:23:47;;;;;;;4.95;1.25;;;;;;;12.13;100.00;100448.47;10324050;28;20097;-78
2023/03/22 14:28:48;;;;;;;8.18;1.50;;;;;;;11.96;100.00;100450.47;10347275;28;20839;-81
2023/03/22 14:33:50;;;;;;;8.02;3.03;;;;;;;12.04;100.00;100450.78;10334030;28;20050;-78
2023/03/22 14:38:51;;;;;;;6.25;1.55;;;;;;;12.03;100.00;100446.38;10311034;28;20038;-78
2023/03/22 14:43:58;;;;;;;3.22;1.85;;;;;;;12.04;100.00;100445.53;10313261;28;20061;-78
2023/03/22 14:48:59;;;;;;;3.38;1.42;;;;;;;12.03;100.00;100433.25;10323059;28;20122;-76
2023/03/22 14:54:03;;;;;;;7.63;1.48;;;;;;;12.06;100.00;100422.88;10354151;28;20103;-76
2023/03/22 14:59:04;;;;;;;4.60;1.25;;;;;;;12.01;100.00;100427.94;10303922;28;20046;-76
2023/03/22 15:04:09;;;;;;;7.55;1.50;;;;;;;12.03;100.00;100418.41;10335236;28;20045;-76
2023/03/22 15:09:10;;;;;;;4.13;1.40;;;;;;;12.07;100.00;100422.03;10303129;28;20548;-76
2023/03/22 15:14:11;;;;;;;3.90;1.37;;;;;;;12.18;100.00;100409.25;10301331;28;20038;-75
2023/03/22 15:19:12;;;;;;;2.63;1.30;;;;;;;12.14;100.00;100397.78;10340013;28;20057;-75
2023/03/22 15:24:29;;;;;;;2.65;1.20;;;;;;;12.31;100.00;100386.97;10326176;28;20084;-75
2023/03/22 15:29:33;;;;;;;2.38;1.40;;;;;;;12.44;100.00;100393.50;10339719;28;20486;-75
2023/03/22 15:34:34;;;;;;;4.00;1.30;;;;;;;12.41;100.00;100389.06;10318687;28;20042;-75
2023/03/22 15:39:38;;;;;;;3.53;1.02;;;;;;;12.34;100.00;100392.31;10340397;28;20133;-76
2023/03/22 15:44:39;;;;;;;3.95;2.22;;;;;;;12.29;100.00;100392.16;10314311;28;20049;-77
2023/03/22 15:49:55;;;;;;;8.20;1.13;;;;;;;12.25;100.00;100394.63;10303212;28;20045;-77
2023/03/22 15:55:16;;;;;;;4.18;1.33;;;;;;;12.22;100.00;100398.03;10339560;28;20677;-77
2023/03/22 16:00:34;;;;;;;5.00;1.88;;;;;;;12.21;100.00;100387.50;10332523;28;20083;-77
2023/03/22 16:05:39;;;;;;;8.38;1.70;;;;;;;12.28;100.00;100400.84;10346079;28;20038;-77
2023/03/22 16:10:42;;;;;;;5.18;1.58;;;;;;;12.23;100.00;100401.56;10343268;28;20073;-77
2023/03/22 16:15:43;;;;;;;2.47;1.20;;;;;;;12.14;100.00;100389.91;10289569;28;20042;-76
2023/03/22 16:20:43;;;;;;;4.20;1.70;;;;;;;12.11;100.00;100400.31;10309001;28;20125;-77
2023/03/22 16:25:44;;;;;;;4.30;1.77;;;;;;;12.07;100.00;100400.13;10298292;28;20045;-74
2023/03/22 16:30:45;;;;;;;5.85;1.77;;;;;;;11.98;100.00;100409.44;10340413;28;20057;-77
2023/03/22 16:35:46;;;;;;;2.78;1.25;;;;;;;11.97;100.00;100418.16;10303043;28;20053;-77
2023/03/22 16:40:51;;;;;;;4.07;1.50;;;;;;;11.95;100.00;100425.06;10300387;28;20045;-76
2023/03/22 16:45:52;;;;;;;6.38;1.50;;;;;;;11.85;100.00;100417.72;10309942;28;20269;-77
2023/03/22 16:50:52;;;;;;;4.43;1.75;;;;;;;11.74;100.00;100417.34;10333404;28;20069;-75
2023/03/22 16:55:53;;;;;;;4.53;1.75;;;;;;;11.67;100.00;100416.22;10313349;28;20047;-74
2023/03/22 17:00:54;;;;;;;4.82;1.60;;;;;;;11.55;100.00;100406.22;10331611;28;20062;-74
2023/03/22 17:05:55;;;;;;;8.30;2.07;;;;;;;11.56;100.00;100401.84;10337071;28;20051;-75
2023/03/22 17:10:55;;;;;;;5.22;1.95;;;;;;;11.51;100.00;100406.94;10315564;28;20092;-76
2023/03/22 17:15:56;;;;;;;8.45;3.15;;;;;;;11.49;100.00;100391.97;10295719;28;20042;-75
2023/03/22 17:20:56;;;;;;;3.97;1.83;;;;;;;11.38;100.00;100383.75;10362157;28;20048;-74
2023/03/22 17:25:57;;;;;;;4.70;1.88;;;;;;;11.27;100.00;100393.81;10291701;28;20033;-76
2023/03/22 17:31:00;;;;;;;14.50;2.20;;;;;;;11.00;100.00;100397.16;10351512;28;20132;-74
2023/03/22 17:36:01;;;;;;;4.85;1.92;;;;;;;10.99;100.00;100405.84;10327186;28;20415;-75
2023/03/22 17:41:02;;;;;;;6.03;1.33;;;;;;;10.96;100.00;100406.66;10339571;28;20046;-74
2023/03/22 17:46:02;;;;;;;5.32;2.00;;;;;;;10.94;100.00;100408.31;10348766;28;20398;-74
2023/03/22 17:51:03;;;;;;;9.55;2.13;;;;;;;10.89;100.00;100402.00;10343384;28;20050;-74
2023/03/22 17:56:03;;;;;;;4.65;1.92;;;;;;;10.93;100.00;100401.28;10332858;28;20049;-74
2023/03/22 18:01:04;;;;;;;8.32;2.17;;;;;;;10.97;100.00;100391.81;10341089;28;20042;-73
2023/03/22 18:06:05;;;;;;;15.43;5.88;;;;;;;10.92;100.00;100385.50;10340547;28;20084;-75
2023/03/22 18:11:06;;;;;;;2.88;1.73;;;;;;;10.87;100.00;100391.47;10330100;28;20064;-74
2023/03/22 18:16:07;;;;;;;8.05;2.70;;;;;;;10.80;100.00;100388.56;10326235;28;20441;-73
2023/03/22 18:21:11;;;;;;;16.77;3.87;;;;;;;10.83;100.00;100386.06;10349492;28;20060;-74
2023/03/22 18:26:11;;;;;;;4.30;2.90;;;;;;;10.87;100.00;100386.22;10354946;28;20048;-73
2023/03/22 18:31:12;;;;;;;5.07;2.63;;;;;;;10.87;100.00;100380.09;10329769;28;20077;-74
2023/03/22 18:36:13;;;;;;;9.18;2.50;;;;;;;10.83;100.00;100367.72;10305312;28;20507;-74
2023/03/22 18:41:13;;;;;;;6.68;3.40;;;;;;;10.76;100.00;100368.31;10341732;28;20038;-76
2023/03/22 18:46:15;;;;;;;6.20;2.80;;;;;;;10.84;100.00;100377.38;10348457;28;20065;-74
2023/03/22 18:51:15;;;;;;;4.50;2.63;;;;;;;10.95;100.00;100385.63;10310048;28;20031;-74
2023/03/22 18:56:16;;;;;;;6.47;3.35;;;;;;;10.95;100.00;100373.44;10330892;28;20073;-73
2023/03/22 19:01:16;;;;;;;7.90;3.10;;;;;;;10.67;100.00;100375.00;10349435;28;20496;-73
2023/03/22 19:06:17;;;;;;;14.00;4.18;;;;;;;10.36;100.00;100381.59;10308543;28;20042;-74
2023/03/22 19:11:19;;;;;;;11.10;3.85;;;;;;;10.17;100.00;100384.28;10300358;28;20039;-74
2023/03/22 19:16:20;;;;;;;9.55;4.07;;;;;;;10.11;100.00;100383.19;10304433;28;20038;-73
2023/03/22 19:21:21;;;;;;;7.37;4.07;;;;;;;10.17;100.00;100382.53;10321039;28;20124;-75
2023/03/22 19:26:22;;;;;;;8.52;3.38;;;;;;;10.23;100.00;100372.31;10304136;28;20128;-75
2023/03/22 19:31:23;;;;;;;10.40;5.07;;;;;;;10.17;100.00;100368.56;10338425;28;20493;-74
2023/03/22 19:36:24;;;;;;;7.03;4.15;;;;;;;10.23;100.00;100368.81;10315873;28;20049;-74
2023/03/22 19:41:25;;;;;;;15.77;4.70;;;;;;;10.22;100.00;100365.31;10328626;28;20378;-75
2023/03/22 19:46:25;;;;;;;8.10;3.55;;;;;;;10.08;100.00;100356.91;10348446;28;20108;-74
2023/03/22 19:51:26;;;;;;;9.50;4.05;;;;;;;10.08;100.00;100353.38;10338207;28;20062;-75
2023/03/22 19:56:26;;;;;;;9.60;5.75;;;;;;;10.10;100.00;100362.19;10323015;28;20490;-74
2023/03/22 20:01:27;;;;;;;10.45;5.60;;;;;;;10.17;100.00;100340.69;10325403;28;20553;-74
2023/03/22 20:06:31;;;;;;;9.55;4.75;;;;;;;10.12;100.00;100347.44;10322402;28;20050;-75
2023/03/22 20:11:31;;;;;;;9.65;5.30;;;;;;;10.10;100.00;100325.56;10333581;28;20091;-74
2023/03/22 20:16:33;;;;;;;9.52;5.32;;;;;;;10.24;100.00;100336.63;10347492;28;20072;-75
2023/03/22 20:21:34;;;;;;;8.00;5.10;;;;;;;10.30;100.00;100315.94;10346689;28;20100;-74
2023/03/22 20:26:35;;;;;;;7.53;3.88;;;;;;;10.32;100.00;100313.38;10358394;28;20034;-75
2023/03/22 20:31:35;;;;;;;9.25;3.80;;;;;;;10.35;100.00;100305.66;10343712;28;20042;-75
2023/03/22 20:36:36;;;;;;;13.63;4.10;;;;;;;10.37;100.00;100306.59;10347558;28;20120;-75
2023/03/22 20:41:36;;;;;;;8.13;3.83;;;;;;;10.47;100.00;100286.97;10324159;28;20121;-76
2023/03/22 20:46:37;;;;;;;6.90;3.72;;;;;;;10.46;100.00;100288.69;10317186;28;21041;-75
2023/03/22 20:51:38;;;;;;;10.43;3.75;;;;;;;10.39;100.00;100295.41;10338016;28;20048;-75
2023/03/22 20:56:38;;;;;;;10.95;3.55;;;;;;;10.38;100.00;100292.69;10350320;28;20053;-75
2023/03/22 21:01:39;;;;;;;9.30;3.65;;;;;;;10.29;100.00;100286.25;10338156;28;20038;-76
2023/03/22 21:06:40;;;;;;;10.20;4.53;;;;;;;10.35;100.00;100267.31;10341817;28;20129;-75
2023/03/22 21:11:41;;;;;;;5.00;3.10;;;;;;;10.38;100.00;100274.38;10347044;28;20037;-75
2023/03/22 21:16:42;;;;;;;9.88;3.83;;;;;;;10.35;100.00;100283.00;10317494;28;20038;-75
2023/03/22 21:21:43;;;;;;;6.97;3.33;;;;;;;10.20;100.00;100275.44;10317590;28;20040;-75
2023/03/22 21:26:44;;;;;;;8.68;4.40;;;;;;;9.94;100.00;100267.44;10317836;28;20042;-75
2023/03/22 21:31:44;;;;;;;6.28;4.35;;;;;;;9.80;100.00;100263.38;10337604;28;20125;-76
2023/03/22 21:36:47;;;;;;;8.13;3.78;;;;;;;9.81;100.00;100267.75;10307733;28;20062;-75
2023/03/22 21:41:47;;;;;;;;;;;;;;;9.83;100.00;100276.56;10348163;28;20037;-75
2023/03/22 21:46:48;;;;;;;10.45;3.60;;;;;;;9.95;100.00;100274.44;10343307;28;19921;-75
2023/03/22 21:51:48;;;;;;;5.63;2.75;;;;;;;10.12;100.00;100261.16;10367061;28;20438;-75
2023/03/22 21:56:49;;;;;;;6.30;3.20;;;;;;;10.26;100.00;100233.81;10335550;28;20145;-76
2023/03/22 22:01:51;;;;;;;7.55;3.33;;;;;;;10.27;100.00;100238.22;10330010;28;20045;-75
2023/03/22 22:06:52;;;;;;;8.55;2.80;;;;;;;10.40;100.00;100233.50;10306089;28;20040;-75
2023/03/22 22:11:53;;;;;;;6.97;3.28;;;;;;;10.42;100.00;100237.97;10340345;28;20381;-75
2023/03/22 22:16:54;;;;;;;14.47;3.37;;;;;;;10.41;100.00;100241.44;10345381;28;20046;-76
2023/03/22 22:21:55;;;;;;;6.53;2.88;;;;;;;10.42;100.00;100243.22;10343107;28;20364;-76
2023/03/22 22:26:56;;;;;;;8.15;2.95;;;;;;;10.49;100.00;100227.75;10335851;28;20046;-76
2023/03/22 22:31:56;;;;;;;8.63;2.72;;;;;;;10.57;100.00;100223.69;10329694;28;20035;-76
2023/03/22 22:36:57;;;;;;;6.38;2.95;;;;;;;10.51;100.00;100211.25;10317764;28;20069;-76
2023/03/22 22:41:57;;;;;;;5.25;2.45;;;;;;;10.58;100.00;100207.16;10320497;28;20504;-76
2023/03/22 22:46:58;;;;;;;9.05;2.50;;;;;;;10.83;100.00;100210.66;10321040;28;20113;-76
2023/03/22 22:51:58;;;;;;;6.43;2.25;;;;;;;10.84;100.00;100200.25;10345177;28;20042;-77
2023/03/22 22:56:59;;;;;;;3.70;2.33;;;;;;;10.90;100.00;100196.97;10284868;28;20039;-76